sensor_id;sensor_type;location;lat;lon;timestamp;temperature;humidity
21672;DHT22;10997;52.242;8.168;2023-07-08T00:01:47;17.10;99.90
21672;DHT22;10997;52.242;8.168;2023-07-08T00:06:48;16.90;99.90
21672;DHT22;10997;52.242;8.168;2023-07-08T00:11:49;16.80;99.90
21672;DHT22;10997;52.242;8.168;2023-07-08T00:16:50;16.70;99.90
21672;DHT22;10997;52.242;8.168;2023-07-08T00:21:51;16.60;99.90
21672;DHT22;10997;52.242;8.168;2023-07-08T00:26:52;16.50;99.90
21672;DHT22;10997;52.242;8.168;2023-07-08T00:31:53;16.50;99.90
21672;DHT22;10997;52.242;8.168;2023-07-08T00:36:53;16.50;99.90
21672;DHT22;10997;52.242;8.168;2023-07-08T00:41:54;16.40;99.90
21672;DHT22;10997;52.242;8.168;2023-07-08T00:47:08;16.30;99.90
21672;DHT22;10997;52.242;8.168;2023-07-08T00:57:25;15.90;99.90
21672;DHT22;10997;52.242;8.168;2023-07-08T01:02:28;15.80;99.90
21672;DHT22;10997;52.242;8.168;2023-07-08T01:07:28;15.80;99.90
21672;DHT22;10997;52.242;8.168;2023-07-08T01:12:34;15.80;99.90
21672;DHT22;10997;52.242;8.168;2023-07-08T01:17:36;15.70;99.90
21672;DHT22;10997;52.242;8.168;2023-07-08T01:22:39;15.60;99.90
21672;DHT22;10997;52.242;8.168;2023-07-08T01:27:44;15.50;99.90
21672;DHT22;10997;52.242;8.168;2023-07-08T01:32:49;15.50;99.90
21672;DHT22;10997;52.242;8.168;2023-07-08T01:37:57;15.50;99.90
21672;DHT22;10997;52.242;8.168;2023-07-08T01:42:59;15.40;99.90
21672;DHT22;10997;52.242;8.168;2023-07-08T01:48:03;15.30;99.90
21672;DHT22;10997;52.242;8.168;2023-07-08T01:53:07;15.30;99.90
21672;DHT22;10997;52.242;8.168;2023-07-08T01:58:09;15.20;99.90
21672;DHT22;10997;52.242;8.168;2023-07-08T02:03:09;15.10;99.90
21672;DHT22;10997;52.242;8.168;2023-07-08T02:08:10;15.10;99.90
21672;DHT22;10997;52.242;8.168;2023-07-08T02:13:11;15.00;99.90
21672;DHT22;10997;52.242;8.168;2023-07-08T02:18:11;14.90;99.90
21672;DHT22;10997;52.242;8.168;2023-07-08T02:23:13;14.90;99.90
21672;DHT22;10997;52.242;8.168;2023-07-08T02:28:13;14.80;99.90
21672;DHT22;10997;52.242;8.168;2023-07-08T02:33:14;14.80;99.90
21672;DHT22;10997;52.242;8.168;2023-07-08T02:38:17;14.80;99.90
21672;DHT22;10997;52.242;8.168;2023-07-08T02:43:18;14.70;99.90
21672;DHT22;10997;52.242;8.168;2023-07-08T02:48:18;14.60;99.90
21672;DHT22;10997;52.242;8.168;2023-07-08T02:53:19;14.60;99.90
21672;DHT22;10997;52.242;8.168;2023-07-08T02:58:20;14.70;99.90
21672;DHT22;10997;52.242;8.168;2023-07-08T03:03:21;14.60;99.90
21672;DHT22;10997;52.242;8.168;2023-07-08T03:08:21;14.40;99.90
21672;DHT22;10997;52.242;8.168;2023-07-08T03:13:22;14.40;99.90
21672;DHT22;10997;52.242;8.168;2023-07-08T03:18:23;14.40;99.90
21672;DHT22;10997;52.242;8.168;2023-07-08T03:23:24;14.40;99.90
21672;DHT22;10997;52.242;8.168;2023-07-08T03:28:25;14.40;99.90
21672;DHT22;10997;52.242;8.168;2023-07-08T03:33:26;14.50;99.90
21672;DHT22;10997;52.242;8.168;2023-07-08T03:38:27;14.60;99.90
21672;DHT22;10997;52.242;8.168;2023-07-08T03:43:27;14.60;99.90
21672;DHT22;10997;52.242;8.168;2023-07-08T03:48:28;14.60;99.90
21672;DHT22;10997;52.242;8.168;2023-07-08T03:53:28;14.70;99.90
21672;DHT22;10997;52.242;8.168;2023-07-08T03:58:29;14.70;99.90
21672;DHT22;10997;52.242;8.168;2023-07-08T04:03:29;14.80;99.90
21672;DHT22;10997;52.242;8.168;2023-07-08T04:08:30;14.90;99.90
21672;DHT22;10997;52.242;8.168;2023-07-08T04:13:32;15.10;99.90
21672;DHT22;10997;52.242;8.168;2023-07-08T04:18:32;15.10;99.90
21672;DHT22;10997;52.242;8.168;2023-07-08T04:23:33;15.20;99.90
21672;DHT22;10997;52.242;8.168;2023-07-08T04:28:33;15.20;99.90
21672;DHT22;10997;52.242;8.168;2023-07-08T04:33:34;15.40;99.90
21672;DHT22;10997;52.242;8.168;2023-07-08T04:38:35;15.60;99.90
21672;DHT22;10997;52.242;8.168;2023-07-08T04:43:37;15.70;99.90
21672;DHT22;10997;52.242;8.168;2023-07-08T04:48:38;15.90;99.90
21672;DHT22;10997;52.242;8.168;2023-07-08T04:53:39;16.20;99.90
21672;DHT22;10997;52.242;8.168;2023-07-08T04:58:40;16.50;99.90
21672;DHT22;10997;52.242;8.168;2023-07-08T05:03:40;16.70;99.90
21672;DHT22;10997;52.242;8.168;2023-07-08T05:08:41;16.90;99.90
21672;DHT22;10997;52.242;8.168;2023-07-08T05:13:41;17.00;99.90
21672;DHT22;10997;52.242;8.168;2023-07-08T05:18:42;17.10;99.90
21672;DHT22;10997;52.242;8.168;2023-07-08T05:23:43;17.40;99.90
21672;DHT22;10997;52.242;8.168;2023-07-08T05:28:44;17.60;99.90
21672;DHT22;10997;52.242;8.168;2023-07-08T05:33:45;17.90;99.90
21672;DHT22;10997;52.242;8.168;2023-07-08T05:38:45;18.30;99.90
21672;DHT22;10997;52.242;8.168;2023-07-08T05:43:46;18.60;99.90
21672;DHT22;10997;52.242;8.168;2023-07-08T05:48:46;19.00;99.90
21672;DHT22;10997;52.242;8.168;2023-07-08T05:53:49;19.30;99.90
21672;DHT22;10997;52.242;8.168;2023-07-08T05:58:49;19.50;99.90
21672;DHT22;10997;52.242;8.168;2023-07-08T06:03:50;19.80;99.90
21672;DHT22;10997;52.242;8.168;2023-07-08T06:08:50;20.00;99.90
21672;DHT22;10997;52.242;8.168;2023-07-08T06:13:51;20.10;99.90
21672;DHT22;10997;52.242;8.168;2023-07-08T06:18:52;20.30;99.90
21672;DHT22;10997;52.242;8.168;2023-07-08T06:23:52;20.50;99.90
21672;DHT22;10997;52.242;8.168;2023-07-08T06:28:53;20.70;99.90
21672;DHT22;10997;52.242;8.168;2023-07-08T06:33:53;21.00;99.90
21672;DHT22;10997;52.242;8.168;2023-07-08T06:38:54;21.30;99.90
21672;DHT22;10997;52.242;8.168;2023-07-08T06:43:54;21.60;99.90
21672;DHT22;10997;52.242;8.168;2023-07-08T06:48:55;21.80;99.90
21672;DHT22;10997;52.242;8.168;2023-07-08T06:53:56;21.90;99.90
21672;DHT22;10997;52.242;8.168;2023-07-08T06:58:57;22.20;99.90
21672;DHT22;10997;52.242;8.168;2023-07-08T07:03:57;22.30;99.90
21672;DHT22;10997;52.242;8.168;2023-07-08T07:08:59;22.40;99.90
21672;DHT22;10997;52.242;8.168;2023-07-08T07:14:00;22.60;99.90
21672;DHT22;10997;52.242;8.168;2023-07-08T07:19:00;23.00;99.90
21672;DHT22;10997;52.242;8.168;2023-07-08T07:24:01;23.40;99.90
21672;DHT22;10997;52.242;8.168;2023-07-08T07:29:02;23.50;99.90
21672;DHT22;10997;52.242;8.168;2023-07-08T07:34:02;23.60;99.90
21672;DHT22;10997;52.242;8.168;2023-07-08T07:39:03;24.00;99.90
21672;DHT22;10997;52.242;8.168;2023-07-08T07:44:03;24.30;99.90
21672;DHT22;10997;52.242;8.168;2023-07-08T07:49:04;24.60;99.90
21672;DHT22;10997;52.242;8.168;2023-07-08T07:54:04;24.80;99.90
21672;DHT22;10997;52.242;8.168;2023-07-08T07:59:05;25.10;99.90
21672;DHT22;10997;52.242;8.168;2023-07-08T08:04:06;25.30;99.90
21672;DHT22;10997;52.242;8.168;2023-07-08T08:09:07;25.50;99.90
21672;DHT22;10997;52.242;8.168;2023-07-08T08:14:07;25.60;99.90
21672;DHT22;10997;52.242;8.168;2023-07-08T08:19:08;25.90;99.90
21672;DHT22;10997;52.242;8.168;2023-07-08T08:24:08;26.10;99.90
21672;DHT22;10997;52.242;8.168;2023-07-08T08:29:09;26.20;99.70
21672;DHT22;10997;52.242;8.168;2023-07-08T08:34:10;26.40;99.70
21672;DHT22;10997;52.242;8.168;2023-07-08T08:39:10;26.60;99.70
21672;DHT22;10997;52.242;8.168;2023-07-08T08:44:15;27.00;99.30
21672;DHT22;10997;52.242;8.168;2023-07-08T08:49:30;27.30;99.00
21672;DHT22;10997;52.242;8.168;2023-07-08T08:54:32;27.60;97.30
21672;DHT22;10997;52.242;8.168;2023-07-08T08:59:50;27.80;96.50
21672;DHT22;10997;52.242;8.168;2023-07-08T09:04:53;28.00;96.00
21672;DHT22;10997;52.242;8.168;2023-07-08T09:15:29;28.60;93.70
21672;DHT22;10997;52.242;8.168;2023-07-08T09:20:30;28.70;93.70
21672;DHT22;10997;52.242;8.168;2023-07-08T09:25:42;28.90;93.30
21672;DHT22;10997;52.242;8.168;2023-07-08T09:30:51;29.10;92.40
21672;DHT22;10997;52.242;8.168;2023-07-08T09:35:53;29.40;92.30
21672;DHT22;10997;52.242;8.168;2023-07-08T09:40:53;29.60;91.90
21672;DHT22;10997;52.242;8.168;2023-07-08T09:45:59;29.50;91.80
21672;DHT22;10997;52.242;8.168;2023-07-08T09:51:00;29.70;91.50
21672;DHT22;10997;52.242;8.168;2023-07-08T09:56:03;30.00;91.20
21672;DHT22;10997;52.242;8.168;2023-07-08T10:01:30;30.10;90.10
21672;DHT22;10997;52.242;8.168;2023-07-08T10:06:33;30.40;90.10
21672;DHT22;10997;52.242;8.168;2023-07-08T10:11:42;30.60;90.60
21672;DHT22;10997;52.242;8.168;2023-07-08T10:16:44;30.70;89.60
21672;DHT22;10997;52.242;8.168;2023-07-08T10:21:55;30.80;87.00
21672;DHT22;10997;52.242;8.168;2023-07-08T10:28:02;31.00;85.20
21672;DHT22;10997;52.242;8.168;2023-07-08T10:32:52;31.40;85.20
21672;DHT22;10997;52.242;8.168;2023-07-08T11:09:51;32.60;79.60
21672;DHT22;10997;52.242;8.168;2023-07-08T11:15:04;32.80;79.90
21672;DHT22;10997;52.242;8.168;2023-07-08T11:20:16;32.70;77.50
21672;DHT22;10997;52.242;8.168;2023-07-08T11:25:20;32.60;75.40
21672;DHT22;10997;52.242;8.168;2023-07-08T11:30:23;32.90;74.50
21672;DHT22;10997;52.242;8.168;2023-07-08T11:35:40;33.50;74.90
21672;DHT22;10997;52.242;8.168;2023-07-08T11:40:58;33.80;71.60
21672;DHT22;10997;52.242;8.168;2023-07-08T11:46:04;34.00;72.50
21672;DHT22;10997;52.242;8.168;2023-07-08T11:51:07;34.00;72.50
21672;DHT22;10997;52.242;8.168;2023-07-08T12:11:34;34.10;69.30
21672;DHT22;10997;52.242;8.168;2023-07-08T12:16:35;34.20;67.00
21672;DHT22;10997;52.242;8.168;2023-07-08T12:21:36;34.50;64.50
21672;DHT22;10997;52.242;8.168;2023-07-08T12:26:37;34.50;61.30
21672;DHT22;10997;52.242;8.168;2023-07-08T12:31:38;34.40;62.10
21672;DHT22;10997;52.242;8.168;2023-07-08T12:36:39;34.60;59.10
21672;DHT22;10997;52.242;8.168;2023-07-08T12:41:40;34.80;59.70
21672;DHT22;10997;52.242;8.168;2023-07-08T12:46:41;35.00;58.90
21672;DHT22;10997;52.242;8.168;2023-07-08T12:51:46;35.20;58.00
21672;DHT22;10997;52.242;8.168;2023-07-08T12:56:46;35.20;57.20
21672;DHT22;10997;52.242;8.168;2023-07-08T13:01:48;35.30;57.30
21672;DHT22;10997;52.242;8.168;2023-07-08T13:06:49;35.40;57.20
21672;DHT22;10997;52.242;8.168;2023-07-08T13:11:51;35.60;56.30
21672;DHT22;10997;52.242;8.168;2023-07-08T13:16:53;35.70;54.60
21672;DHT22;10997;52.242;8.168;2023-07-08T13:21:53;35.50;54.10
21672;DHT22;10997;52.242;8.168;2023-07-08T13:26:55;35.80;53.80
21672;DHT22;10997;52.242;8.168;2023-07-08T13:32:04;35.80;54.00
21672;DHT22;10997;52.242;8.168;2023-07-08T13:37:10;35.80;53.60
21672;DHT22;10997;52.242;8.168;2023-07-08T13:42:12;35.80;53.30
21672;DHT22;10997;52.242;8.168;2023-07-08T13:47:27;35.80;52.50
21672;DHT22;10997;52.242;8.168;2023-07-08T13:52:29;35.90;53.70
21672;DHT22;10997;52.242;8.168;2023-07-08T13:57:38;36.00;53.00
21672;DHT22;10997;52.242;8.168;2023-07-08T14:02:43;36.20;52.00
21672;DHT22;10997;52.242;8.168;2023-07-08T14:07:44;36.10;51.00
21672;DHT22;10997;52.242;8.168;2023-07-08T14:12:45;36.10;51.10
21672;DHT22;10997;52.242;8.168;2023-07-08T14:17:46;36.20;51.30
21672;DHT22;10997;52.242;8.168;2023-07-08T14:22:46;36.50;50.00
21672;DHT22;10997;52.242;8.168;2023-07-08T14:27:47;36.40;50.80
21672;DHT22;10997;52.242;8.168;2023-07-08T14:32:47;36.40;51.70
21672;DHT22;10997;52.242;8.168;2023-07-08T14:37:48;36.40;52.70
21672;DHT22;10997;52.242;8.168;2023-07-08T14:43:01;36.40;52.10
21672;DHT22;10997;52.242;8.168;2023-07-08T14:48:08;36.40;51.00
21672;DHT22;10997;52.242;8.168;2023-07-08T14:53:09;36.30;50.80
21672;DHT22;10997;52.242;8.168;2023-07-08T14:58:26;36.40;50.60
21672;DHT22;10997;52.242;8.168;2023-07-08T15:03:27;36.70;49.30
21672;DHT22;10997;52.242;8.168;2023-07-08T15:08:27;36.60;50.10
21672;DHT22;10997;52.242;8.168;2023-07-08T15:13:29;36.30;50.70
21672;DHT22;10997;52.242;8.168;2023-07-08T15:18:30;36.40;50.90
21672;DHT22;10997;52.242;8.168;2023-07-08T15:23:31;36.50;50.90
21672;DHT22;10997;52.242;8.168;2023-07-08T15:28:44;36.40;49.80
21672;DHT22;10997;52.242;8.168;2023-07-08T15:33:48;36.70;50.50
21672;DHT22;10997;52.242;8.168;2023-07-08T15:38:48;36.80;50.80
21672;DHT22;10997;52.242;8.168;2023-07-08T15:43:53;36.80;50.70
21672;DHT22;10997;52.242;8.168;2023-07-08T15:48:54;36.80;51.00
21672;DHT22;10997;52.242;8.168;2023-07-08T15:53:54;36.80;51.40
21672;DHT22;10997;52.242;8.168;2023-07-08T15:58:55;36.80;52.30
21672;DHT22;10997;52.242;8.168;2023-07-08T16:03:56;36.60;52.40
21672;DHT22;10997;52.242;8.168;2023-07-08T16:08:57;36.50;52.40
21672;DHT22;10997;52.242;8.168;2023-07-08T16:13:57;36.50;53.00
21672;DHT22;10997;52.242;8.168;2023-07-08T16:18:58;36.30;52.10
21672;DHT22;10997;52.242;8.168;2023-07-08T16:23:59;36.40;53.10
21672;DHT22;10997;52.242;8.168;2023-07-08T16:28:59;36.30;52.60
21672;DHT22;10997;52.242;8.168;2023-07-08T16:34:01;36.40;53.10
21672;DHT22;10997;52.242;8.168;2023-07-08T16:39:01;36.40;52.90
21672;DHT22;10997;52.242;8.168;2023-07-08T16:44:07;36.40;52.80
21672;DHT22;10997;52.242;8.168;2023-07-08T16:49:12;36.10;52.30
21672;DHT22;10997;52.242;8.168;2023-07-08T16:54:17;36.30;52.20
21672;DHT22;10997;52.242;8.168;2023-07-08T16:59:18;36.00;53.20
21672;DHT22;10997;52.242;8.168;2023-07-08T17:04:19;35.80;53.40
21672;DHT22;10997;52.242;8.168;2023-07-08T17:09:19;35.90;53.40
21672;DHT22;10997;52.242;8.168;2023-07-08T17:14:20;35.70;53.30
21672;DHT22;10997;52.242;8.168;2023-07-08T17:19:20;35.60;53.50
21672;DHT22;10997;52.242;8.168;2023-07-08T17:24:21;35.60;53.80
21672;DHT22;10997;52.242;8.168;2023-07-08T17:29:22;35.30;54.20
21672;DHT22;10997;52.242;8.168;2023-07-08T17:34:25;34.80;54.50
21672;DHT22;10997;52.242;8.168;2023-07-08T17:39:27;34.40;54.50
21672;DHT22;10997;52.242;8.168;2023-07-08T17:44:27;34.40;54.90
21672;DHT22;10997;52.242;8.168;2023-07-08T17:49:28;34.60;55.80
21672;DHT22;10997;52.242;8.168;2023-07-08T17:54:29;34.70;55.70
21672;DHT22;10997;52.242;8.168;2023-07-08T17:59:31;34.80;56.00
21672;DHT22;10997;52.242;8.168;2023-07-08T18:04:32;34.80;56.00
21672;DHT22;10997;52.242;8.168;2023-07-08T18:09:33;34.40;56.10
21672;DHT22;10997;52.242;8.168;2023-07-08T18:14:35;34.10;57.30
21672;DHT22;10997;52.242;8.168;2023-07-08T18:19:35;33.90;57.50
21672;DHT22;10997;52.242;8.168;2023-07-08T18:24:36;33.80;57.90
21672;DHT22;10997;52.242;8.168;2023-07-08T18:29:36;33.40;58.20
21672;DHT22;10997;52.242;8.168;2023-07-08T18:34:37;32.90;59.00
21672;DHT22;10997;52.242;8.168;2023-07-08T18:39:37;32.50;61.10
21672;DHT22;10997;52.242;8.168;2023-07-08T18:44:39;31.90;62.90
21672;DHT22;10997;52.242;8.168;2023-07-08T18:49:39;31.50;64.40
21672;DHT22;10997;52.242;8.168;2023-07-08T18:54:40;31.20;64.60
21672;DHT22;10997;52.242;8.168;2023-07-08T18:59:41;30.90;64.70
21672;DHT22;10997;52.242;8.168;2023-07-08T19:04:42;30.60;66.20
21672;DHT22;10997;52.242;8.168;2023-07-08T19:09:43;30.30;68.00
21672;DHT22;10997;52.242;8.168;2023-07-08T19:14:44;29.90;70.20
21672;DHT22;10997;52.242;8.168;2023-07-08T19:19:44;29.60;72.00
21672;DHT22;10997;52.242;8.168;2023-07-08T19:24:45;29.30;74.20
21672;DHT22;10997;52.242;8.168;2023-07-08T19:29:48;29.10;75.90
21672;DHT22;10997;52.242;8.168;2023-07-08T19:34:49;28.80;77.70
21672;DHT22;10997;52.242;8.168;2023-07-08T19:39:50;28.50;79.80
21672;DHT22;10997;52.242;8.168;2023-07-08T19:44:51;28.20;81.10
21672;DHT22;10997;52.242;8.168;2023-07-08T19:49:52;28.00;82.30
21672;DHT22;10997;52.242;8.168;2023-07-08T19:54:52;27.70;83.60
21672;DHT22;10997;52.242;8.168;2023-07-08T19:59:56;27.50;83.60
21672;DHT22;10997;52.242;8.168;2023-07-08T20:04:56;27.30;83.90
21672;DHT22;10997;52.242;8.168;2023-07-08T20:09:57;27.00;84.70
21672;DHT22;10997;52.242;8.168;2023-07-08T20:14:59;26.80;86.30
21672;DHT22;10997;52.242;8.168;2023-07-08T20:19:59;26.50;88.40
21672;DHT22;10997;52.242;8.168;2023-07-08T20:25:00;26.30;89.00
21672;DHT22;10997;52.242;8.168;2023-07-08T20:30:00;26.10;90.10
21672;DHT22;10997;52.242;8.168;2023-07-08T20:35:02;25.90;90.20
21672;DHT22;10997;52.242;8.168;2023-07-08T20:40:03;25.90;89.30
21672;DHT22;10997;52.242;8.168;2023-07-08T20:45:04;26.00;87.20
21672;DHT22;10997;52.242;8.168;2023-07-08T20:50:19;26.00;88.20
21672;DHT22;10997;52.242;8.168;2023-07-08T20:55:20;25.60;90.70
21672;DHT22;10997;52.242;8.168;2023-07-08T21:00:25;25.40;92.50
21672;DHT22;10997;52.242;8.168;2023-07-08T21:05:27;25.20;92.50
21672;DHT22;10997;52.242;8.168;2023-07-08T21:10:29;25.00;93.40
21672;DHT22;10997;52.242;8.168;2023-07-08T21:15:32;24.90;94.00
21672;DHT22;10997;52.242;8.168;2023-07-08T21:20:33;24.70;94.40
21672;DHT22;10997;52.242;8.168;2023-07-08T21:25:33;24.60;94.70
21672;DHT22;10997;52.242;8.168;2023-07-08T21:30:34;24.50;94.90
21672;DHT22;10997;52.242;8.168;2023-07-08T21:35:35;24.50;95.20
21672;DHT22;10997;52.242;8.168;2023-07-08T21:40:44;24.40;95.30
21672;DHT22;10997;52.242;8.168;2023-07-08T21:45:46;24.30;95.70
21672;DHT22;10997;52.242;8.168;2023-07-08T21:50:48;24.20;96.00
21672;DHT22;10997;52.242;8.168;2023-07-08T21:55:50;24.00;96.50
21672;DHT22;10997;52.242;8.168;2023-07-08T22:00:50;23.90;97.00
21672;DHT22;10997;52.242;8.168;2023-07-08T22:05:51;23.80;97.10
21672;DHT22;10997;52.242;8.168;2023-07-08T22:10:58;23.80;97.40
21672;DHT22;10997;52.242;8.168;2023-07-08T22:16:04;23.70;97.30
21672;DHT22;10997;52.242;8.168;2023-07-08T22:21:13;23.70;97.90
21672;DHT22;10997;52.242;8.168;2023-07-08T22:26:15;23.60;98.00
21672;DHT22;10997;52.242;8.168;2023-07-08T22:31:31;23.40;98.60
21672;DHT22;10997;52.242;8.168;2023-07-08T22:36:32;23.30;98.60
21672;DHT22;10997;52.242;8.168;2023-07-08T22:41:43;23.30;98.50
21672;DHT22;10997;52.242;8.168;2023-07-08T22:46:45;23.20;98.90
21672;DHT22;10997;52.242;8.168;2023-07-08T22:51:46;23.00;99.60
21672;DHT22;10997;52.242;8.168;2023-07-08T22:56:47;23.00;99.40
21672;DHT22;10997;52.242;8.168;2023-07-08T23:01:47;22.80;99.80
21672;DHT22;10997;52.242;8.168;2023-07-08T23:06:48;22.70;99.90
21672;DHT22;10997;52.242;8.168;2023-07-08T23:11:48;22.70;99.90
21672;DHT22;10997;52.242;8.168;2023-07-08T23:16:49;22.70;99.90
21672;DHT22;10997;52.242;8.168;2023-07-08T23:21:50;22.90;99.00
21672;DHT22;10997;52.242;8.168;2023-07-08T23:26:50;23.00;98.30
21672;DHT22;10997;52.242;8.168;2023-07-08T23:31:51;22.90;98.20
21672;DHT22;10997;52.242;8.168;2023-07-08T23:36:52;22.80;98.40
21672;DHT22;10997;52.242;8.168;2023-07-08T23:41:53;22.70;98.30
21672;DHT22;10997;52.242;8.168;2023-07-08T23:46:57;22.60;98.60
21672;DHT22;10997;52.242;8.168;2023-07-08T23:52:00;22.50;98.90
21672;DHT22;10997;52.242;8.168;2023-07-08T23:57:04;22.40;99.30
